createdAt,value
2018-06-30T00:01:10.199Z,100.00
2018-06-30T00:03:44.326Z,100.00
2018-06-30T00:06:13.303Z,100.00
2018-06-30T00:08:42.417Z,100.00
2018-06-30T00:11:11.385Z,100.00
2018-06-30T00:13:40.440Z,100.00
2018-06-30T00:16:09.540Z,100.00
2018-06-30T00:18:38.560Z,100.00
2018-06-30T00:21:07.987Z,100.00
2018-06-30T00:23:37.001Z,100.00
2018-06-30T00:26:06.382Z,100.00
2018-06-30T00:28:35.365Z,100.00
2018-06-30T00:31:04.475Z,100.00
2018-06-30T00:33:33.446Z,100.00
2018-06-30T00:36:02.432Z,100.00
2018-06-30T00:38:31.421Z,100.00
2018-06-30T00:41:00.476Z,100.00
2018-06-30T00:43:29.524Z,100.00
2018-06-30T00:45:58.516Z,100.00
2018-06-30T00:48:27.537Z,100.00
2018-06-30T00:50:56.561Z,100.00
2018-06-30T00:53:25.540Z,100.00
2018-06-30T00:55:54.661Z,100.00
2018-06-30T00:58:26.621Z,100.00
2018-06-30T01:00:55.648Z,100.00
2018-06-30T01:03:24.756Z,100.00
2018-06-30T01:05:53.748Z,100.00
2018-06-30T01:08:22.812Z,100.00
2018-06-30T01:10:51.897Z,100.00
2018-06-30T01:13:20.859Z,100.00
2018-06-30T01:15:49.839Z,100.00
2018-06-30T01:18:18.892Z,100.00
2018-06-30T01:20:47.945Z,100.00
2018-06-30T01:23:16.919Z,100.00
2018-06-30T01:25:45.964Z,100.00
2018-06-30T01:28:14.948Z,100.00
2018-06-30T01:30:44.000Z,100.00
2018-06-30T01:33:12.967Z,100.00
2018-06-30T01:35:41.949Z,100.00
2018-06-30T01:38:10.916Z,100.00
2018-06-30T01:40:39.926Z,100.00
2018-06-30T01:43:09.000Z,100.00
2018-06-30T01:45:37.972Z,100.00
2018-06-30T01:48:07.008Z,100.00
2018-06-30T01:50:35.986Z,100.00
2018-06-30T01:53:04.979Z,100.00
2018-06-30T01:55:33.937Z,100.00
2018-06-30T01:58:02.940Z,100.00
2018-06-30T02:00:31.903Z,100.00
2018-06-30T02:03:00.896Z,100.00
2018-06-30T02:05:29.859Z,100.00
2018-06-30T02:07:58.937Z,100.00
2018-06-30T02:10:27.987Z,100.00
2018-06-30T02:12:56.981Z,100.00
2018-06-30T02:15:25.959Z,100.00
2018-06-30T02:17:54.944Z,100.00
2018-06-30T02:20:23.912Z,100.00
2018-06-30T02:22:52.995Z,100.00
2018-06-30T02:25:22.015Z,100.00
2018-06-30T02:27:51.063Z,100.00
2018-06-30T02:30:20.055Z,100.00
2018-06-30T02:32:49.110Z,100.00
2018-06-30T02:35:18.169Z,100.00
2018-06-30T02:37:47.273Z,100.00
2018-06-30T02:40:16.319Z,100.00
2018-06-30T02:42:45.292Z,100.00
2018-06-30T02:45:14.321Z,100.00
2018-06-30T02:47:43.316Z,100.00
2018-06-30T02:50:12.404Z,100.00
2018-06-30T02:52:41.404Z,100.00
2018-06-30T02:55:10.480Z,100.00
2018-06-30T02:57:39.520Z,100.00
2018-06-30T03:00:08.532Z,100.00
2018-06-30T03:02:37.512Z,100.00
2018-06-30T03:05:06.642Z,100.00
2018-06-30T03:07:35.709Z,100.00
2018-06-30T03:10:04.821Z,100.00
2018-06-30T03:12:33.817Z,100.00
2018-06-30T03:15:02.805Z,100.00
2018-06-30T03:17:31.847Z,100.00
2018-06-30T03:20:00.863Z,100.00
2018-06-30T03:22:29.884Z,100.00
2018-06-30T03:24:58.852Z,100.00
2018-06-30T03:27:27.956Z,100.00
2018-06-30T03:29:56.919Z,100.00
2018-06-30T03:32:25.896Z,100.00
2018-06-30T03:34:54.893Z,100.00
2018-06-30T03:37:23.918Z,100.00
2018-06-30T03:39:53.009Z,100.00
2018-06-30T03:42:22.005Z,100.00
2018-06-30T03:44:51.064Z,100.00
2018-06-30T03:47:20.040Z,100.00
2018-06-30T03:49:49.133Z,100.00
2018-06-30T03:52:18.109Z,100.00
2018-06-30T03:54:47.232Z,100.00
2018-06-30T03:57:16.304Z,100.00
2018-06-30T03:59:45.272Z,100.00
2018-06-30T04:02:14.319Z,100.00
2018-06-30T04:04:43.617Z,100.00
2018-06-30T04:07:12.636Z,100.00
2018-06-30T04:09:41.599Z,100.00
2018-06-30T04:12:10.629Z,100.00
2018-06-30T04:14:39.720Z,100.00
2018-06-30T04:17:08.717Z,100.00
2018-06-30T04:19:37.733Z,100.00
2018-06-30T04:22:06.771Z,100.00
2018-06-30T04:24:35.847Z,100.00
2018-06-30T04:27:05.140Z,100.00
2018-06-30T04:29:34.252Z,100.00
2018-06-30T04:32:03.244Z,100.00
2018-06-30T04:34:32.280Z,100.00
2018-06-30T04:37:01.261Z,100.00
2018-06-30T04:39:30.365Z,100.00
2018-06-30T04:41:59.347Z,100.00
2018-06-30T04:44:28.363Z,100.00
2018-06-30T04:46:57.344Z,100.00
2018-06-30T04:49:26.409Z,99.96
2018-06-30T04:51:55.915Z,100.00
2018-06-30T04:54:24.972Z,100.00
2018-06-30T04:56:53.940Z,99.18
2018-06-30T04:59:22.996Z,99.17
2018-06-30T05:01:52.163Z,99.55
2018-06-30T05:04:21.748Z,99.24
2018-06-30T05:06:50.948Z,100.00
2018-06-30T05:09:20.199Z,99.02
2018-06-30T05:11:49.531Z,99.49
2018-06-30T05:14:18.768Z,100.00
2018-06-30T05:16:47.908Z,99.17
2018-06-30T05:19:17.119Z,98.23
2018-06-30T05:21:46.421Z,98.21
2018-06-30T05:24:15.547Z,97.69
2018-06-30T05:26:44.804Z,98.54
2018-06-30T05:29:14.013Z,97.59
2018-06-30T05:31:43.253Z,98.16
2018-06-30T05:34:12.538Z,96.82
2018-06-30T05:36:41.897Z,95.38
2018-06-30T05:39:11.117Z,95.50
2018-06-30T05:41:40.448Z,95.96
2018-06-30T05:44:09.729Z,94.74
2018-06-30T05:46:39.065Z,93.46
2018-06-30T05:49:08.569Z,93.68
2018-06-30T05:51:37.936Z,92.85
2018-06-30T05:54:07.243Z,92.93
2018-06-30T05:56:36.551Z,92.42
2018-06-30T05:59:05.901Z,92.34
2018-06-30T06:01:35.228Z,92.73
2018-06-30T06:04:04.731Z,92.97
2018-06-30T06:06:34.076Z,90.96
2018-06-30T06:09:03.674Z,91.98
2018-06-30T06:11:32.925Z,91.97
2018-06-30T06:14:02.225Z,92.50
2018-06-30T06:16:31.669Z,93.08
2018-06-30T06:19:00.891Z,93.51
2018-06-30T06:21:30.137Z,93.33
2018-06-30T06:23:59.397Z,92.99
2018-06-30T06:26:28.838Z,93.87
2018-06-30T06:28:58.038Z,93.36
2018-06-30T06:31:27.332Z,93.48
2018-06-30T06:33:56.493Z,93.12
2018-06-30T06:36:25.704Z,95.21
2018-06-30T06:38:55.073Z,93.56
2018-06-30T06:41:24.289Z,92.92
2018-06-30T06:43:53.661Z,92.82
2018-06-30T06:46:22.889Z,92.65
2018-06-30T06:48:52.298Z,92.33
2018-06-30T06:51:21.685Z,91.82
2018-06-30T06:53:50.928Z,90.96
2018-06-30T06:56:20.361Z,90.22
2018-06-30T06:58:49.572Z,91.67
2018-06-30T07:01:18.841Z,89.20
2018-06-30T07:03:48.098Z,90.49
2018-06-30T07:06:18.260Z,90.00
2018-06-30T07:08:47.587Z,90.07
2018-06-30T07:11:16.800Z,90.26
2018-06-30T07:13:46.099Z,89.92
2018-06-30T07:16:15.442Z,89.15
2018-06-30T07:18:44.792Z,88.96
2018-06-30T07:21:14.092Z,88.94
2018-06-30T07:23:43.440Z,90.14
2018-06-30T07:26:12.737Z,90.86
2018-06-30T07:28:42.200Z,90.96
2018-06-30T07:31:11.455Z,92.33
2018-06-30T07:33:40.664Z,91.37
2018-06-30T07:36:10.039Z,90.31
2018-06-30T07:38:39.541Z,90.19
2018-06-30T07:41:08.788Z,89.91
2018-06-30T07:43:38.037Z,90.64
2018-06-30T07:46:07.325Z,90.45
2018-06-30T07:48:36.729Z,89.94
2018-06-30T07:51:05.980Z,90.87
2018-06-30T07:53:35.229Z,90.55
2018-06-30T07:56:04.577Z,90.79
2018-06-30T07:58:33.828Z,87.95
2018-06-30T08:01:03.082Z,89.72
2018-06-30T08:03:32.320Z,90.78
2018-06-30T08:06:01.529Z,89.05
2018-06-30T08:08:30.770Z,88.50
2018-06-30T08:11:00.050Z,90.02
2018-06-30T08:13:29.562Z,88.66
2018-06-30T08:15:58.840Z,88.72
2018-06-30T08:18:27.996Z,88.27
2018-06-30T08:20:57.197Z,88.87
2018-06-30T08:23:26.480Z,90.20
2018-06-30T08:25:55.648Z,90.17
2018-06-30T08:28:24.854Z,89.77
2018-06-30T08:30:54.123Z,91.03
2018-06-30T08:33:23.404Z,92.63
2018-06-30T08:35:52.669Z,91.83
2018-06-30T08:38:21.784Z,91.96
2018-06-30T08:40:51.064Z,90.62
2018-06-30T08:43:20.300Z,91.33
2018-06-30T08:45:49.969Z,92.02
2018-06-30T08:48:19.251Z,90.33
2018-06-30T08:50:48.574Z,90.07
2018-06-30T08:53:17.957Z,88.44
2018-06-30T08:55:47.101Z,90.01
2018-06-30T08:58:16.348Z,89.71
2018-06-30T09:00:45.532Z,89.49
2018-06-30T09:03:14.820Z,91.53
2018-06-30T09:05:44.201Z,91.58
2018-06-30T09:08:13.429Z,91.94
2018-06-30T09:10:42.767Z,92.26
2018-06-30T09:13:12.132Z,91.99
2018-06-30T09:15:41.344Z,93.33
2018-06-30T09:18:10.773Z,93.99
2018-06-30T09:20:40.214Z,93.94
2018-06-30T09:23:09.556Z,92.66
2018-06-30T09:25:38.893Z,92.74
2018-06-30T09:28:08.312Z,92.87
2018-06-30T09:30:37.713Z,92.64
2018-06-30T09:33:06.965Z,91.72
2018-06-30T09:35:36.318Z,93.29
2018-06-30T09:38:05.571Z,93.80
2018-06-30T09:40:34.903Z,91.79
2018-06-30T09:43:04.264Z,90.14
2018-06-30T09:45:33.656Z,89.45
2018-06-30T09:48:02.933Z,88.93
2018-06-30T09:50:32.224Z,88.96
2018-06-30T09:53:01.625Z,87.54
2018-06-30T09:55:30.880Z,87.24
2018-06-30T09:58:00.266Z,85.46
2018-06-30T10:00:34.313Z,85.23
2018-06-30T10:03:03.476Z,85.66
2018-06-30T10:05:32.903Z,85.05
2018-06-30T10:08:02.041Z,86.18
2018-06-30T10:10:31.249Z,83.14
2018-06-30T10:13:00.521Z,84.22
2018-06-30T10:15:29.804Z,85.38
2018-06-30T10:17:58.836Z,86.41
2018-06-30T10:20:28.041Z,87.13
2018-06-30T10:22:57.419Z,86.82
2018-06-30T10:25:26.804Z,85.37
2018-06-30T10:27:56.092Z,80.75
2018-06-30T10:30:25.499Z,80.72
2018-06-30T10:32:54.716Z,82.90
2018-06-30T10:35:23.808Z,83.70
2018-06-30T10:37:53.005Z,84.25
2018-06-30T10:40:22.297Z,85.27
2018-06-30T10:42:51.819Z,86.52
2018-06-30T10:45:21.101Z,87.45
2018-06-30T10:47:50.297Z,86.91
2018-06-30T10:50:19.533Z,86.74
2018-06-30T10:52:48.801Z,86.57
2018-06-30T10:55:18.158Z,87.08
2018-06-30T10:57:47.392Z,88.89
2018-06-30T11:00:16.756Z,91.06
2018-06-30T11:02:45.900Z,90.70
2018-06-30T11:05:15.099Z,91.81
2018-06-30T11:07:44.776Z,93.92
2018-06-30T11:10:14.216Z,94.75
2018-06-30T11:12:43.544Z,96.44
2018-06-30T11:15:12.829Z,98.59
2018-06-30T11:17:42.270Z,100.00
2018-06-30T11:20:11.688Z,100.00
2018-06-30T11:22:41.012Z,99.28
2018-06-30T11:25:10.829Z,100.00
2018-06-30T11:27:40.038Z,100.00
2018-06-30T11:30:09.389Z,100.00
2018-06-30T11:32:38.689Z,100.00
2018-06-30T11:35:08.288Z,100.00
2018-06-30T11:37:37.570Z,100.00
2018-06-30T11:40:06.781Z,100.00
2018-06-30T11:42:36.029Z,97.68
2018-06-30T11:45:05.488Z,96.02
2018-06-30T11:47:34.665Z,93.50
2018-06-30T11:50:04.045Z,93.48
2018-06-30T11:52:33.320Z,94.42
2018-06-30T11:55:02.461Z,93.28
2018-06-30T11:57:31.664Z,94.81
2018-06-30T12:00:00.832Z,96.15
2018-06-30T12:02:30.015Z,97.38
2018-06-30T12:04:59.256Z,98.51
2018-06-30T12:07:28.469Z,99.81
2018-06-30T12:09:57.846Z,99.59
2018-06-30T12:12:27.112Z,100.00
2018-06-30T12:14:56.348Z,99.67
2018-06-30T12:17:25.556Z,99.12
2018-06-30T12:19:54.868Z,97.63
2018-06-30T12:22:24.111Z,98.24
2018-06-30T12:24:53.505Z,97.23
2018-06-30T12:27:22.669Z,97.03
2018-06-30T12:29:51.881Z,97.43
2018-06-30T12:32:21.199Z,96.97
2018-06-30T12:34:50.550Z,96.37
2018-06-30T12:37:19.860Z,97.53
2018-06-30T12:39:49.163Z,98.36
2018-06-30T12:42:18.524Z,97.61
2018-06-30T12:44:47.675Z,98.58
2018-06-30T12:47:17.213Z,99.88
2018-06-30T12:49:46.532Z,100.00
2018-06-30T12:52:15.793Z,100.00
2018-06-30T12:54:45.165Z,100.00
2018-06-30T12:57:14.603Z,100.00
2018-06-30T12:59:44.081Z,100.00
2018-06-30T13:02:13.386Z,100.00
2018-06-30T13:04:42.556Z,100.00
2018-06-30T13:07:11.757Z,100.00
2018-06-30T13:09:41.030Z,100.00
2018-06-30T13:12:10.282Z,100.00
2018-06-30T13:14:39.494Z,100.00
2018-06-30T13:17:08.737Z,100.00
2018-06-30T13:19:37.996Z,100.00
2018-06-30T13:22:07.557Z,100.00
2018-06-30T13:24:36.841Z,100.00
2018-06-30T13:27:06.373Z,100.00
2018-06-30T13:29:35.657Z,100.00
2018-06-30T13:32:04.991Z,100.00
2018-06-30T13:34:34.294Z,100.00
2018-06-30T13:37:03.640Z,96.65
2018-06-30T13:39:32.961Z,97.65
2018-06-30T13:42:02.295Z,95.92
2018-06-30T13:44:31.753Z,96.19
2018-06-30T13:47:01.154Z,94.90
2018-06-30T13:49:30.346Z,93.94
2018-06-30T13:51:59.630Z,93.23
2018-06-30T13:54:28.911Z,95.85
2018-06-30T13:56:58.116Z,95.33
2018-06-30T13:59:27.284Z,96.88
2018-06-30T14:01:56.718Z,96.52
2018-06-30T14:04:26.402Z,96.64
2018-06-30T14:06:55.589Z,95.91
2018-06-30T14:09:24.933Z,97.50
2018-06-30T14:11:54.136Z,96.45
2018-06-30T14:14:23.493Z,96.48
2018-06-30T14:16:53.333Z,96.82
2018-06-30T14:19:22.744Z,97.50
2018-06-30T14:21:52.053Z,98.52
2018-06-30T14:24:21.544Z,98.45
2018-06-30T14:26:50.877Z,98.13
2018-06-30T14:29:20.193Z,98.30
2018-06-30T14:31:49.526Z,99.30
2018-06-30T14:34:18.825Z,100.00
2018-06-30T14:36:48.176Z,100.00
2018-06-30T14:39:17.347Z,100.00
2018-06-30T14:41:46.676Z,100.00
2018-06-30T14:44:15.977Z,100.00
2018-06-30T14:46:45.271Z,100.00
2018-06-30T14:49:14.529Z,100.00
2018-06-30T14:51:43.744Z,100.00
2018-06-30T14:54:12.821Z,100.00
2018-06-30T14:56:42.192Z,100.00
2018-06-30T14:59:11.693Z,100.00
2018-06-30T15:01:40.944Z,100.00
2018-06-30T15:04:10.244Z,100.00
2018-06-30T15:06:39.549Z,100.00
2018-06-30T15:09:12.994Z,100.00
2018-06-30T15:11:43.277Z,99.78
2018-06-30T15:14:13.053Z,97.21
2018-06-30T15:16:42.373Z,98.44
2018-06-30T15:19:11.692Z,96.37
2018-06-30T15:21:40.900Z,98.11
2018-06-30T15:24:10.536Z,96.61
2018-06-30T15:26:39.902Z,95.65
2018-06-30T15:29:09.208Z,96.32
2018-06-30T15:31:38.671Z,98.26
2018-06-30T15:34:07.964Z,97.73
2018-06-30T15:36:37.345Z,98.74
2018-06-30T15:39:09.410Z,99.08
2018-06-30T15:41:38.612Z,99.67
2018-06-30T15:44:08.120Z,100.00
2018-06-30T15:46:37.459Z,99.88
2018-06-30T15:49:07.329Z,100.00
2018-06-30T15:51:36.572Z,100.00
2018-06-30T15:54:06.124Z,100.00
2018-06-30T15:56:35.508Z,100.00
2018-06-30T15:59:04.996Z,100.00
2018-06-30T16:01:34.355Z,100.00
2018-06-30T16:04:03.575Z,100.00
2018-06-30T16:06:32.809Z,100.00
2018-06-30T16:09:02.029Z,100.00
2018-06-30T16:11:31.265Z,100.00
2018-06-30T16:14:00.560Z,100.00
2018-06-30T16:16:29.827Z,100.00
2018-06-30T16:18:59.174Z,100.00
2018-06-30T16:21:28.512Z,100.00
2018-06-30T16:23:57.817Z,100.00
2018-06-30T16:26:27.154Z,100.00
2018-06-30T16:28:56.602Z,100.00
2018-06-30T16:31:25.931Z,100.00
2018-06-30T16:33:55.243Z,100.00
2018-06-30T16:36:24.576Z,100.00
2018-06-30T16:38:53.789Z,100.00
2018-06-30T16:41:23.286Z,100.00
2018-06-30T16:43:52.682Z,100.00
2018-06-30T16:46:21.876Z,100.00
2018-06-30T16:48:51.060Z,100.00
2018-06-30T16:51:20.340Z,100.00
2018-06-30T16:53:49.553Z,100.00
2018-06-30T16:56:18.793Z,100.00
2018-06-30T16:58:48.015Z,100.00
2018-06-30T17:01:17.383Z,100.00
2018-06-30T17:03:46.657Z,100.00
2018-06-30T17:06:15.904Z,100.00
2018-06-30T17:08:45.212Z,100.00
2018-06-30T17:11:14.601Z,100.00
2018-06-30T17:13:44.422Z,100.00
2018-06-30T17:16:14.213Z,100.00
2018-06-30T17:18:43.597Z,100.00
2018-06-30T17:21:13.662Z,100.00
2018-06-30T17:23:43.156Z,100.00
2018-06-30T17:26:12.564Z,100.00
2018-06-30T17:28:42.119Z,100.00
2018-06-30T17:31:11.241Z,100.00
2018-06-30T17:33:40.433Z,100.00
2018-06-30T17:36:09.607Z,100.00
2018-06-30T17:38:39.358Z,100.00
2018-06-30T17:41:08.689Z,100.00
2018-06-30T17:43:37.940Z,100.00
2018-06-30T17:46:07.535Z,100.00
2018-06-30T17:48:36.946Z,100.00
2018-06-30T17:51:06.542Z,100.00
2018-06-30T17:53:35.758Z,100.00
2018-06-30T17:56:05.432Z,100.00
2018-06-30T17:58:34.775Z,100.00
2018-06-30T18:01:03.864Z,100.00
2018-06-30T18:03:33.212Z,100.00
2018-06-30T18:06:02.518Z,100.00
2018-06-30T18:08:31.904Z,100.00
2018-06-30T18:11:00.996Z,100.00
2018-06-30T18:13:30.353Z,100.00
2018-06-30T18:15:59.595Z,100.00
2018-06-30T18:18:28.768Z,100.00
2018-06-30T18:20:58.077Z,100.00
2018-06-30T18:23:27.404Z,100.00
2018-06-30T18:25:56.856Z,100.00
2018-06-30T18:28:26.149Z,100.00
2018-06-30T18:30:55.401Z,100.00
2018-06-30T18:33:24.541Z,100.00
2018-06-30T18:35:53.957Z,100.00
2018-06-30T18:38:23.137Z,100.00
2018-06-30T18:40:52.368Z,100.00
2018-06-30T18:43:21.616Z,100.00
2018-06-30T18:45:50.768Z,100.00
2018-06-30T18:48:19.924Z,100.00
2018-06-30T18:50:49.239Z,100.00
2018-06-30T18:53:18.827Z,100.00
2018-06-30T18:55:48.287Z,100.00
2018-06-30T18:58:17.816Z,100.00
2018-06-30T19:00:47.380Z,100.00
2018-06-30T19:03:16.881Z,100.00
2018-06-30T19:05:46.579Z,100.00
2018-06-30T19:08:16.091Z,100.00
2018-06-30T19:10:45.672Z,100.00
2018-06-30T19:13:15.218Z,100.00
2018-06-30T19:15:44.570Z,100.00
2018-06-30T19:18:14.181Z,100.00
2018-06-30T19:20:43.728Z,100.00
2018-06-30T19:23:13.290Z,100.00
2018-06-30T19:25:42.605Z,100.00
2018-06-30T19:28:11.913Z,100.00
2018-06-30T19:30:41.226Z,100.00
2018-06-30T19:33:11.017Z,100.00
2018-06-30T19:35:40.310Z,100.00
2018-06-30T19:38:09.563Z,100.00
2018-06-30T19:40:38.927Z,100.00
2018-06-30T19:43:08.370Z,100.00
2018-06-30T19:45:37.607Z,100.00
2018-06-30T19:48:06.841Z,100.00
2018-06-30T19:50:36.184Z,100.00
2018-06-30T19:53:05.484Z,100.00
2018-06-30T19:55:34.629Z,100.00
2018-06-30T19:58:03.840Z,100.00
2018-06-30T20:00:33.183Z,100.00
2018-06-30T20:03:02.609Z,100.00
2018-06-30T20:05:32.002Z,100.00
2018-06-30T20:08:01.321Z,100.00
2018-06-30T20:10:30.601Z,100.00
2018-06-30T20:13:00.332Z,100.00
2018-06-30T20:15:29.786Z,100.00
2018-06-30T20:17:59.093Z,100.00
2018-06-30T20:20:28.409Z,100.00
2018-06-30T20:22:57.881Z,100.00
2018-06-30T20:25:27.183Z,100.00
2018-06-30T20:27:56.385Z,100.00
2018-06-30T20:30:25.733Z,100.00
2018-06-30T20:32:54.994Z,100.00
2018-06-30T20:35:24.264Z,100.00
2018-06-30T20:37:53.587Z,100.00
2018-06-30T20:40:22.880Z,100.00
2018-06-30T20:42:52.143Z,100.00
2018-06-30T20:45:21.369Z,100.00
2018-06-30T20:47:50.500Z,100.00
2018-06-30T20:50:19.828Z,100.00
2018-06-30T20:52:49.055Z,100.00
2018-06-30T20:55:18.330Z,100.00
2018-06-30T20:57:47.521Z,100.00
2018-06-30T21:00:16.748Z,100.00
2018-06-30T21:02:45.956Z,100.00
2018-06-30T21:05:15.196Z,100.00
2018-06-30T21:07:44.473Z,100.00
2018-06-30T21:10:13.953Z,100.00
2018-06-30T21:12:43.305Z,100.00
2018-06-30T21:15:12.564Z,100.00
2018-06-30T21:17:42.014Z,100.00
2018-06-30T21:20:11.416Z,100.00
2018-06-30T21:22:40.673Z,100.00
2018-06-30T21:25:09.928Z,100.00
2018-06-30T21:27:39.277Z,100.00
2018-06-30T21:30:08.612Z,100.00
2018-06-30T21:32:37.837Z,100.00
2018-06-30T21:35:07.176Z,100.00
2018-06-30T21:37:36.480Z,100.00
2018-06-30T21:40:05.881Z,100.00
2018-06-30T21:42:35.292Z,100.00
2018-06-30T21:45:04.932Z,100.00
2018-06-30T21:47:34.245Z,100.00
2018-06-30T21:50:03.613Z,100.00
2018-06-30T21:52:32.852Z,100.00
2018-06-30T21:55:02.057Z,100.00
2018-06-30T21:57:31.300Z,100.00
2018-06-30T22:00:00.613Z,100.00
2018-06-30T22:02:29.904Z,100.00
2018-06-30T22:04:59.158Z,100.00
2018-06-30T22:07:28.343Z,100.00
2018-06-30T22:09:57.550Z,100.00
2018-06-30T22:12:26.823Z,100.00
2018-06-30T22:14:56.134Z,100.00
2018-06-30T22:17:25.380Z,100.00
2018-06-30T22:19:54.824Z,100.00
2018-06-30T22:22:24.004Z,100.00
2018-06-30T22:24:53.180Z,100.00
2018-06-30T22:27:22.305Z,100.00
2018-06-30T22:29:51.491Z,100.00
2018-06-30T22:32:20.724Z,100.00
2018-06-30T22:34:49.864Z,100.00
2018-06-30T22:37:19.076Z,100.00
2018-06-30T22:39:59.011Z,100.00
2018-06-30T22:42:28.308Z,100.00
2018-06-30T22:44:57.664Z,100.00
2018-06-30T22:47:27.144Z,100.00
2018-06-30T22:49:56.431Z,99.93
2018-06-30T22:52:25.728Z,99.96
2018-06-30T22:54:55.068Z,97.79
2018-06-30T22:57:24.440Z,98.02
2018-06-30T22:59:53.859Z,95.60
2018-06-30T23:02:23.204Z,97.15
2018-06-30T23:04:52.455Z,97.74
2018-06-30T23:07:21.702Z,98.74
2018-06-30T23:09:51.095Z,98.78
2018-06-30T23:12:20.410Z,98.85
2018-06-30T23:14:49.655Z,99.75
2018-06-30T23:17:18.786Z,100.00
2018-06-30T23:19:48.070Z,100.00
2018-06-30T23:22:25.329Z,99.97
2018-06-30T23:24:54.800Z,98.32
2018-06-30T23:27:24.100Z,96.09
2018-06-30T23:29:53.501Z,95.14
2018-06-30T23:32:22.844Z,95.18
2018-06-30T23:34:52.196Z,94.29
2018-06-30T23:37:21.464Z,93.53
2018-06-30T23:39:50.827Z,92.07
2018-06-30T23:42:20.131Z,93.16
2018-06-30T23:44:49.435Z,92.41
2018-06-30T23:47:18.763Z,90.23
2018-06-30T23:49:48.027Z,91.25
2018-06-30T23:52:17.215Z,91.31
2018-06-30T23:54:46.425Z,89.93
2018-06-30T23:57:15.784Z,88.82
2018-06-30T23:59:45.028Z,89.08
